sensor_id;sensor_type;location;lat;lon;timestamp;P1;durP1;ratioP1;P2;durP2;ratioP2
30593;SDS011;33199;47.590;8.300;2022-09-09T00:01:01;0.30;;;0.20;;
30593;SDS011;33199;47.590;8.300;2022-09-09T00:03:50;0.20;;;0.20;;
30593;SDS011;33199;47.590;8.300;2022-09-09T00:06:28;0.30;;;0.30;;
30593;SDS011;33199;47.590;8.300;2022-09-09T00:14:37;0.43;;;0.43;;
30593;SDS011;33199;47.590;8.300;2022-09-09T00:17:20;1.38;;;0.25;;
30593;SDS011;33199;47.590;8.300;2022-09-09T00:22:25;0.20;;;0.20;;
30593;SDS011;33199;47.590;8.300;2022-09-09T00:24:56;0.20;;;0.20;;
30593;SDS011;33199;47.590;8.300;2022-09-09T00:30:21;0.50;;;0.38;;
30593;SDS011;33199;47.590;8.300;2022-09-09T00:32:53;0.35;;;0.20;;
30593;SDS011;33199;47.590;8.300;2022-09-09T00:37:57;0.22;;;0.22;;
30593;SDS011;33199;47.590;8.300;2022-09-09T00:40:37;3.80;;;0.17;;
30593;SDS011;33199;47.590;8.300;2022-09-09T00:45:56;0.30;;;0.30;;
30593;SDS011;33199;47.590;8.300;2022-09-09T00:48:51;1.60;;;0.20;;
30593;SDS011;33199;47.590;8.300;2022-09-09T00:51:17;1.13;;;0.43;;
30593;SDS011;33199;47.590;8.300;2022-09-09T00:56:47;0.32;;;0.20;;
30593;SDS011;33199;47.590;8.300;2022-09-09T01:01:49;0.55;;;0.30;;
30593;SDS011;33199;47.590;8.300;2022-09-09T01:04:18;0.20;;;0.20;;
30593;SDS011;33199;47.590;8.300;2022-09-09T01:06:52;0.30;;;0.30;;
30593;SDS011;33199;47.590;8.300;2022-09-09T01:09:27;0.20;;;0.20;;
30593;SDS011;33199;47.590;8.300;2022-09-09T01:17:02;0.45;;;0.32;;
30593;SDS011;33199;47.590;8.300;2022-09-09T01:22:11;1.48;;;0.35;;
30593;SDS011;33199;47.590;8.300;2022-09-09T01:27:44;1.45;;;0.30;;
30593;SDS011;33199;47.590;8.300;2022-09-09T01:30:14;0.35;;;0.35;;
30593;SDS011;33199;47.590;8.300;2022-09-09T01:32:43;0.20;;;0.20;;
30593;SDS011;33199;47.590;8.300;2022-09-09T01:38:01;0.30;;;0.30;;
30593;SDS011;33199;47.590;8.300;2022-09-09T01:40:26;0.20;;;0.20;;
30593;SDS011;33199;47.590;8.300;2022-09-09T01:42:52;1.00;;;0.20;;
30593;SDS011;33199;47.590;8.300;2022-09-09T01:45:18;0.75;;;0.40;;
30593;SDS011;33199;47.590;8.300;2022-09-09T01:47:44;0.47;;;0.30;;
30593;SDS011;33199;47.590;8.300;2022-09-09T01:50:11;0.52;;;0.20;;
30593;SDS011;33199;47.590;8.300;2022-09-09T01:52:39;0.25;;;0.25;;
30593;SDS011;33199;47.590;8.300;2022-09-09T01:55:06;1.27;;;0.30;;
30593;SDS011;33199;47.590;8.300;2022-09-09T02:00:36;0.35;;;0.28;;
30593;SDS011;33199;47.590;8.300;2022-09-09T02:05:37;1.20;;;0.30;;
30593;SDS011;33199;47.590;8.300;2022-09-09T02:10:45;0.30;;;0.30;;
30593;SDS011;33199;47.590;8.300;2022-09-09T02:13:19;0.20;;;0.20;;
30593;SDS011;33199;47.590;8.300;2022-09-09T02:15:54;0.25;;;0.20;;
30593;SDS011;33199;47.590;8.300;2022-09-09T02:21:22;0.45;;;0.30;;
30593;SDS011;33199;47.590;8.300;2022-09-09T02:23:49;1.27;;;0.40;;
30593;SDS011;33199;47.590;8.300;2022-09-09T02:26:17;0.20;;;0.20;;
30593;SDS011;33199;47.590;8.300;2022-09-09T02:28:50;0.30;;;0.30;;
30593;SDS011;33199;47.590;8.300;2022-09-09T02:31:18;0.80;;;0.40;;
30593;SDS011;33199;47.590;8.300;2022-09-09T02:33:49;1.85;;;0.30;;
30593;SDS011;33199;47.590;8.300;2022-09-09T02:36:19;1.38;;;0.10;;
30593;SDS011;33199;47.590;8.300;2022-09-09T02:38:47;0.20;;;0.20;;
30593;SDS011;33199;47.590;8.300;2022-09-09T02:41:19;0.85;;;0.40;;
30593;SDS011;33199;47.590;8.300;2022-09-09T02:43:47;0.43;;;0.30;;
30593;SDS011;33199;47.590;8.300;2022-09-09T02:46:29;0.20;;;0.20;;
30593;SDS011;33199;47.590;8.300;2022-09-09T02:49:02;0.57;;;0.30;;
30593;SDS011;33199;47.590;8.300;2022-09-09T02:54:32;0.70;;;0.40;;
30593;SDS011;33199;47.590;8.300;2022-09-09T02:57:11;0.75;;;0.32;;
30593;SDS011;33199;47.590;8.300;2022-09-09T02:59:41;1.40;;;0.30;;
30593;SDS011;33199;47.590;8.300;2022-09-09T03:02:09;0.20;;;0.20;;
30593;SDS011;33199;47.590;8.300;2022-09-09T03:04:36;0.20;;;0.20;;
30593;SDS011;33199;47.590;8.300;2022-09-09T03:07:02;0.57;;;0.30;;
30593;SDS011;33199;47.590;8.300;2022-09-09T03:09:28;0.52;;;0.40;;
30593;SDS011;33199;47.590;8.300;2022-09-09T03:11:54;0.30;;;0.30;;
30593;SDS011;33199;47.590;8.300;2022-09-09T03:14:20;0.30;;;0.25;;
30593;SDS011;33199;47.590;8.300;2022-09-09T03:16:49;0.80;;;0.20;;
30593;SDS011;33199;47.590;8.300;2022-09-09T03:19:15;0.43;;;0.30;;
30593;SDS011;33199;47.590;8.300;2022-09-09T03:21:41;0.82;;;0.40;;
30593;SDS011;33199;47.590;8.300;2022-09-09T03:24:06;0.30;;;0.30;;
30593;SDS011;33199;47.590;8.300;2022-09-09T03:26:32;0.73;;;0.22;;
30593;SDS011;33199;47.590;8.300;2022-09-09T03:28:58;0.32;;;0.32;;
30593;SDS011;33199;47.590;8.300;2022-09-09T03:31:25;0.45;;;0.40;;
30593;SDS011;33199;47.590;8.300;2022-09-09T03:33:51;0.47;;;0.30;;
30593;SDS011;33199;47.590;8.300;2022-09-09T03:36:17;0.40;;;0.20;;
30593;SDS011;33199;47.590;8.300;2022-09-09T03:38:42;0.20;;;0.20;;
30593;SDS011;33199;47.590;8.300;2022-09-09T03:41:08;0.40;;;0.20;;
30593;SDS011;33199;47.590;8.300;2022-09-09T03:43:33;0.47;;;0.30;;
30593;SDS011;33199;47.590;8.300;2022-09-09T03:45:59;0.50;;;0.40;;
30593;SDS011;33199;47.590;8.300;2022-09-09T03:48:25;0.60;;;0.30;;
30593;SDS011;33199;47.590;8.300;2022-09-09T03:50:53;0.20;;;0.20;;
30593;SDS011;33199;47.590;8.300;2022-09-09T03:53:20;0.88;;;0.30;;
30593;SDS011;33199;47.590;8.300;2022-09-09T03:55:48;0.30;;;0.30;;
30593;SDS011;33199;47.590;8.300;2022-09-09T03:58:17;0.20;;;0.20;;
30593;SDS011;33199;47.590;8.300;2022-09-09T04:01:00;0.30;;;0.30;;
30593;SDS011;33199;47.590;8.300;2022-09-09T04:03:28;0.25;;;0.25;;
30593;SDS011;33199;47.590;8.300;2022-09-09T04:05:55;0.63;;;0.30;;
30593;SDS011;33199;47.590;8.300;2022-09-09T04:08:22;0.40;;;0.40;;
30593;SDS011;33199;47.590;8.300;2022-09-09T04:10:51;0.50;;;0.40;;
30593;SDS011;33199;47.590;8.300;2022-09-09T04:13:18;0.88;;;0.47;;
30593;SDS011;33199;47.590;8.300;2022-09-09T04:15:50;0.40;;;0.40;;
30593;SDS011;33199;47.590;8.300;2022-09-09T04:18:17;1.42;;;0.50;;
30593;SDS011;33199;47.590;8.300;2022-09-09T04:20:42;0.47;;;0.30;;
30593;SDS011;33199;47.590;8.300;2022-09-09T04:23:10;0.35;;;0.35;;
30593;SDS011;33199;47.590;8.300;2022-09-09T04:25:36;2.38;;;0.30;;
30593;SDS011;33199;47.590;8.300;2022-09-09T04:28:02;2.03;;;0.40;;
30593;SDS011;33199;47.590;8.300;2022-09-09T04:30:28;1.23;;;0.35;;
30593;SDS011;33199;47.590;8.300;2022-09-09T04:32:54;0.63;;;0.40;;
30593;SDS011;33199;47.590;8.300;2022-09-09T04:35:19;0.40;;;0.20;;
30593;SDS011;33199;47.590;8.300;2022-09-09T04:37:45;0.30;;;0.30;;
30593;SDS011;33199;47.590;8.300;2022-09-09T04:40:11;0.30;;;0.30;;
30593;SDS011;33199;47.590;8.300;2022-09-09T04:42:37;0.65;;;0.38;;
30593;SDS011;33199;47.590;8.300;2022-09-09T04:45:03;0.73;;;0.40;;
30593;SDS011;33199;47.590;8.300;2022-09-09T04:47:29;0.30;;;0.30;;
30593;SDS011;33199;47.590;8.300;2022-09-09T04:49:55;1.17;;;0.25;;
30593;SDS011;33199;47.590;8.300;2022-09-09T04:52:21;0.30;;;0.30;;
30593;SDS011;33199;47.590;8.300;2022-09-09T04:54:47;0.57;;;0.40;;
30593;SDS011;33199;47.590;8.300;2022-09-09T04:57:13;0.25;;;0.25;;
30593;SDS011;33199;47.590;8.300;2022-09-09T04:59:38;0.40;;;0.40;;
30593;SDS011;33199;47.590;8.300;2022-09-09T05:02:04;0.38;;;0.30;;
30593;SDS011;33199;47.590;8.300;2022-09-09T05:04:30;0.28;;;0.20;;
30593;SDS011;33199;47.590;8.300;2022-09-09T05:06:56;0.75;;;0.40;;
30593;SDS011;33199;47.590;8.300;2022-09-09T05:09:22;1.60;;;0.35;;
30593;SDS011;33199;47.590;8.300;2022-09-09T05:11:47;0.22;;;0.20;;
30593;SDS011;33199;47.590;8.300;2022-09-09T05:14:13;0.70;;;0.40;;
30593;SDS011;33199;47.590;8.300;2022-09-09T05:16:40;0.45;;;0.40;;
30593;SDS011;33199;47.590;8.300;2022-09-09T05:19:06;1.08;;;0.30;;
30593;SDS011;33199;47.590;8.300;2022-09-09T05:21:33;0.30;;;0.30;;
30593;SDS011;33199;47.590;8.300;2022-09-09T05:23:59;0.50;;;0.38;;
30593;SDS011;33199;47.590;8.300;2022-09-09T05:26:28;0.40;;;0.40;;
30593;SDS011;33199;47.590;8.300;2022-09-09T05:28:54;1.25;;;0.60;;
30593;SDS011;33199;47.590;8.300;2022-09-09T05:31:20;0.40;;;0.40;;
30593;SDS011;33199;47.590;8.300;2022-09-09T05:33:46;0.40;;;0.40;;
30593;SDS011;33199;47.590;8.300;2022-09-09T05:36:15;0.30;;;0.30;;
30593;SDS011;33199;47.590;8.300;2022-09-09T05:38:42;1.17;;;0.40;;
30593;SDS011;33199;47.590;8.300;2022-09-09T05:41:09;1.85;;;0.90;;
30593;SDS011;33199;47.590;8.300;2022-09-09T05:43:40;14.50;;;1.70;;
30593;SDS011;33199;47.590;8.300;2022-09-09T05:46:15;5.30;;;0.80;;
30593;SDS011;33199;47.590;8.300;2022-09-09T05:48:44;1.95;;;1.20;;
30593;SDS011;33199;47.590;8.300;2022-09-09T05:51:12;7.30;;;1.00;;
30593;SDS011;33199;47.590;8.300;2022-09-09T05:53:40;4.80;;;1.05;;
30593;SDS011;33199;47.590;8.300;2022-09-09T05:56:11;11.77;;;1.30;;
30593;SDS011;33199;47.590;8.300;2022-09-09T05:58:39;2.25;;;0.90;;
30593;SDS011;33199;47.590;8.300;2022-09-09T06:03:51;7.10;;;1.15;;
30593;SDS011;33199;47.590;8.300;2022-09-09T06:06:18;2.00;;;1.00;;
30593;SDS011;33199;47.590;8.300;2022-09-09T06:08:47;3.17;;;1.10;;
30593;SDS011;33199;47.590;8.300;2022-09-09T06:11:17;13.55;;;1.15;;
30593;SDS011;33199;47.590;8.300;2022-09-09T06:13:44;3.67;;;1.30;;
30593;SDS011;33199;47.590;8.300;2022-09-09T06:16:11;2.17;;;0.80;;
30593;SDS011;33199;47.590;8.300;2022-09-09T06:18:39;2.60;;;0.95;;
30593;SDS011;33199;47.590;8.300;2022-09-09T06:21:06;4.55;;;1.10;;
30593;SDS011;33199;47.590;8.300;2022-09-09T06:23:33;5.97;;;1.00;;
30593;SDS011;33199;47.590;8.300;2022-09-09T06:26:05;1.48;;;0.80;;
30593;SDS011;33199;47.590;8.300;2022-09-09T06:28:34;2.80;;;1.10;;
30593;SDS011;33199;47.590;8.300;2022-09-09T06:31:01;6.32;;;1.00;;
30593;SDS011;33199;47.590;8.300;2022-09-09T06:33:37;4.88;;;0.95;;
30593;SDS011;33199;47.590;8.300;2022-09-09T06:36:06;3.05;;;0.90;;
30593;SDS011;33199;47.590;8.300;2022-09-09T06:38:36;2.15;;;0.90;;
30593;SDS011;33199;47.590;8.300;2022-09-09T06:41:02;6.22;;;1.00;;
30593;SDS011;33199;47.590;8.300;2022-09-09T06:43:27;4.22;;;1.10;;
30593;SDS011;33199;47.590;8.300;2022-09-09T06:48:20;6.75;;;1.05;;
30593;SDS011;33199;47.590;8.300;2022-09-09T06:50:45;2.97;;;0.70;;
30593;SDS011;33199;47.590;8.300;2022-09-09T06:53:11;3.90;;;0.80;;
30593;SDS011;33199;47.590;8.300;2022-09-09T06:55:37;4.00;;;0.95;;
30593;SDS011;33199;47.590;8.300;2022-09-09T06:58:07;1.77;;;0.77;;
30593;SDS011;33199;47.590;8.300;2022-09-09T07:00:33;1.48;;;0.88;;
30593;SDS011;33199;47.590;8.300;2022-09-09T07:02:59;3.00;;;0.95;;
30593;SDS011;33199;47.590;8.300;2022-09-09T07:05:24;2.17;;;1.02;;
30593;SDS011;33199;47.590;8.300;2022-09-09T07:07:51;6.15;;;0.95;;
30593;SDS011;33199;47.590;8.300;2022-09-09T07:10:17;2.40;;;0.80;;
30593;SDS011;33199;47.590;8.300;2022-09-09T07:12:43;3.70;;;0.70;;
30593;SDS011;33199;47.590;8.300;2022-09-09T07:15:10;3.90;;;0.85;;
30593;SDS011;33199;47.590;8.300;2022-09-09T07:17:36;3.83;;;0.95;;
30593;SDS011;33199;47.590;8.300;2022-09-09T07:20:01;1.20;;;0.80;;
30593;SDS011;33199;47.590;8.300;2022-09-09T07:22:28;1.07;;;0.63;;
30593;SDS011;33199;47.590;8.300;2022-09-09T07:24:54;0.85;;;0.65;;
30593;SDS011;33199;47.590;8.300;2022-09-09T07:27:20;2.50;;;0.50;;
30593;SDS011;33199;47.590;8.300;2022-09-09T07:29:47;1.40;;;0.70;;
30593;SDS011;33199;47.590;8.300;2022-09-09T07:32:13;1.52;;;0.70;;
30593;SDS011;33199;47.590;8.300;2022-09-09T07:34:38;2.60;;;0.90;;
30593;SDS011;33199;47.590;8.300;2022-09-09T07:37:04;1.85;;;0.85;;
30593;SDS011;33199;47.590;8.300;2022-09-09T07:39:30;1.25;;;0.50;;
30593;SDS011;33199;47.590;8.300;2022-09-09T07:41:56;1.60;;;0.57;;
30593;SDS011;33199;47.590;8.300;2022-09-09T07:44:23;2.15;;;0.82;;
30593;SDS011;33199;47.590;8.300;2022-09-09T07:46:51;1.00;;;0.70;;
30593;SDS011;33199;47.590;8.300;2022-09-09T07:49:16;0.75;;;0.52;;
30593;SDS011;33199;47.590;8.300;2022-09-09T07:51:43;0.85;;;0.70;;
30593;SDS011;33199;47.590;8.300;2022-09-09T07:54:11;0.60;;;0.40;;
30593;SDS011;33199;47.590;8.300;2022-09-09T07:56:38;1.63;;;0.67;;
30593;SDS011;33199;47.590;8.300;2022-09-09T07:59:05;3.97;;;0.52;;
30593;SDS011;33199;47.590;8.300;2022-09-09T08:03:59;0.65;;;0.57;;
30593;SDS011;33199;47.590;8.300;2022-09-09T08:06:30;3.42;;;0.77;;
30593;SDS011;33199;47.590;8.300;2022-09-09T08:08:59;1.00;;;0.55;;
30593;SDS011;33199;47.590;8.300;2022-09-09T08:11:26;1.58;;;0.63;;
30593;SDS011;33199;47.590;8.300;2022-09-09T08:13:54;1.90;;;0.95;;
30593;SDS011;33199;47.590;8.300;2022-09-09T08:16:22;2.20;;;0.55;;
30593;SDS011;33199;47.590;8.300;2022-09-09T08:21:20;0.60;;;0.50;;
30593;SDS011;33199;47.590;8.300;2022-09-09T08:23:49;3.20;;;0.55;;
30593;SDS011;33199;47.590;8.300;2022-09-09T08:26:39;2.63;;;0.75;;
30593;SDS011;33199;47.590;8.300;2022-09-09T08:29:05;2.03;;;0.55;;
30593;SDS011;33199;47.590;8.300;2022-09-09T08:31:33;1.40;;;0.70;;
30593;SDS011;33199;47.590;8.300;2022-09-09T08:34:01;2.22;;;0.70;;
30593;SDS011;33199;47.590;8.300;2022-09-09T08:36:32;0.40;;;0.40;;
30593;SDS011;33199;47.590;8.300;2022-09-09T08:47:05;0.85;;;0.80;;
30593;SDS011;33199;47.590;8.300;2022-09-09T08:55:53;1.73;;;0.63;;
30593;SDS011;33199;47.590;8.300;2022-09-09T08:58:28;1.00;;;0.60;;
30593;SDS011;33199;47.590;8.300;2022-09-09T09:11:54;1.65;;;0.55;;
30593;SDS011;33199;47.590;8.300;2022-09-09T09:14:26;1.08;;;0.50;;
30593;SDS011;33199;47.590;8.300;2022-09-09T09:17:02;1.85;;;0.60;;
30593;SDS011;33199;47.590;8.300;2022-09-09T09:19:32;0.88;;;0.50;;
30593;SDS011;33199;47.590;8.300;2022-09-09T09:22:19;0.60;;;0.43;;
30593;SDS011;33199;47.590;8.300;2022-09-09T09:25:09;0.88;;;0.50;;
30593;SDS011;33199;47.590;8.300;2022-09-09T09:27:58;0.65;;;0.60;;
30593;SDS011;33199;47.590;8.300;2022-09-09T09:30:49;0.73;;;0.65;;
30593;SDS011;33199;47.590;8.300;2022-09-09T09:33:23;1.20;;;0.60;;
30593;SDS011;33199;47.590;8.300;2022-09-09T09:35:56;2.25;;;0.68;;
30593;SDS011;33199;47.590;8.300;2022-09-09T09:38:27;0.52;;;0.52;;
30593;SDS011;33199;47.590;8.300;2022-09-09T09:40:53;1.33;;;0.50;;
30593;SDS011;33199;47.590;8.300;2022-09-09T09:43:30;2.40;;;0.40;;
30593;SDS011;33199;47.590;8.300;2022-09-09T09:45:58;1.48;;;0.57;;
30593;SDS011;33199;47.590;8.300;2022-09-09T09:48:25;1.83;;;0.47;;
30593;SDS011;33199;47.590;8.300;2022-09-09T09:50:53;0.40;;;0.40;;
30593;SDS011;33199;47.590;8.300;2022-09-09T09:55:55;1.65;;;0.85;;
30593;SDS011;33199;47.590;8.300;2022-09-09T09:58:25;1.20;;;0.57;;
30593;SDS011;33199;47.590;8.300;2022-09-09T10:00:55;0.63;;;0.40;;
30593;SDS011;33199;47.590;8.300;2022-09-09T10:03:23;0.30;;;0.30;;
30593;SDS011;33199;47.590;8.300;2022-09-09T10:05:51;1.35;;;0.68;;
30593;SDS011;33199;47.590;8.300;2022-09-09T10:08:17;1.10;;;0.50;;
30593;SDS011;33199;47.590;8.300;2022-09-09T10:13:31;3.83;;;0.45;;
30593;SDS011;33199;47.590;8.300;2022-09-09T10:21:53;0.98;;;0.60;;
30593;SDS011;33199;47.590;8.300;2022-09-09T10:27:31;1.67;;;0.50;;
30593;SDS011;33199;47.590;8.300;2022-09-09T10:30:41;0.40;;;0.32;;
30593;SDS011;33199;47.590;8.300;2022-09-09T10:33:16;1.58;;;0.50;;
30593;SDS011;33199;47.590;8.300;2022-09-09T10:38:42;2.13;;;0.55;;
30593;SDS011;33199;47.590;8.300;2022-09-09T10:44:22;0.73;;;0.47;;
30593;SDS011;33199;47.590;8.300;2022-09-09T10:52:57;1.23;;;0.60;;
30593;SDS011;33199;47.590;8.300;2022-09-09T10:55:28;0.38;;;0.32;;
30593;SDS011;33199;47.590;8.300;2022-09-09T10:58:08;0.40;;;0.40;;
30593;SDS011;33199;47.590;8.300;2022-09-09T11:00:44;0.90;;;0.50;;
30593;SDS011;33199;47.590;8.300;2022-09-09T11:03:21;0.68;;;0.40;;
30593;SDS011;33199;47.590;8.300;2022-09-09T11:08:31;0.50;;;0.43;;
30593;SDS011;33199;47.590;8.300;2022-09-09T11:11:08;1.17;;;0.43;;
30593;SDS011;33199;47.590;8.300;2022-09-09T11:19:15;0.50;;;0.50;;
30593;SDS011;33199;47.590;8.300;2022-09-09T11:21:46;2.60;;;0.70;;
30593;SDS011;33199;47.590;8.300;2022-09-09T11:24:26;0.38;;;0.30;;
30593;SDS011;33199;47.590;8.300;2022-09-09T11:27:19;0.30;;;0.30;;
30593;SDS011;33199;47.590;8.300;2022-09-09T11:30:04;0.63;;;0.63;;
30593;SDS011;33199;47.590;8.300;2022-09-09T11:38:45;0.95;;;0.52;;
30593;SDS011;33199;47.590;8.300;2022-09-09T11:41:19;0.60;;;0.50;;
30593;SDS011;33199;47.590;8.300;2022-09-09T11:43:46;0.55;;;0.30;;
30593;SDS011;33199;47.590;8.300;2022-09-09T11:46:17;0.50;;;0.40;;
30593;SDS011;33199;47.590;8.300;2022-09-09T11:49:01;2.53;;;0.30;;
30593;SDS011;33199;47.590;8.300;2022-09-09T11:51:29;0.68;;;0.45;;
30593;SDS011;33199;47.590;8.300;2022-09-09T11:54:01;0.52;;;0.40;;
30593;SDS011;33199;47.590;8.300;2022-09-09T11:56:45;0.98;;;0.40;;
30593;SDS011;33199;47.590;8.300;2022-09-09T11:59:49;0.50;;;0.50;;
30593;SDS011;33199;47.590;8.300;2022-09-09T12:02:10;0.40;;;0.40;;
30593;SDS011;33199;47.590;8.300;2022-09-09T12:10:22;0.35;;;0.35;;
30593;SDS011;33199;47.590;8.300;2022-09-09T12:12:49;0.40;;;0.40;;
30593;SDS011;33199;47.590;8.300;2022-09-09T12:15:18;2.08;;;0.50;;
30593;SDS011;33199;47.590;8.300;2022-09-09T12:17:49;0.77;;;0.52;;
30593;SDS011;33199;47.590;8.300;2022-09-09T12:20:21;1.60;;;0.50;;
30593;SDS011;33199;47.590;8.300;2022-09-09T12:31:27;0.85;;;0.40;;
30593;SDS011;33199;47.590;8.300;2022-09-09T12:34:17;0.60;;;0.50;;
30593;SDS011;33199;47.590;8.300;2022-09-09T12:37:05;0.65;;;0.63;;
30593;SDS011;33199;47.590;8.300;2022-09-09T12:39:38;0.75;;;0.43;;
30593;SDS011;33199;47.590;8.300;2022-09-09T12:42:20;0.85;;;0.40;;
30593;SDS011;33199;47.590;8.300;2022-09-09T12:44:50;0.85;;;0.50;;
30593;SDS011;33199;47.590;8.300;2022-09-09T12:47:16;0.43;;;0.40;;
30593;SDS011;33199;47.590;8.300;2022-09-09T12:52:17;1.27;;;0.43;;
30593;SDS011;33199;47.590;8.300;2022-09-09T12:54:51;1.13;;;0.50;;
30593;SDS011;33199;47.590;8.300;2022-09-09T12:57:18;1.05;;;0.40;;
30593;SDS011;33199;47.590;8.300;2022-09-09T12:59:46;1.00;;;0.50;;
30593;SDS011;33199;47.590;8.300;2022-09-09T13:02:22;1.48;;;0.40;;
30593;SDS011;33199;47.590;8.300;2022-09-09T13:04:52;0.40;;;0.40;;
30593;SDS011;33199;47.590;8.300;2022-09-09T13:07:19;1.23;;;0.40;;
30593;SDS011;33199;47.590;8.300;2022-09-09T13:09:47;0.22;;;0.22;;
30593;SDS011;33199;47.590;8.300;2022-09-09T13:12:20;0.83;;;0.40;;
30593;SDS011;33199;47.590;8.300;2022-09-09T13:14:48;0.30;;;0.30;;
30593;SDS011;33199;47.590;8.300;2022-09-09T13:17:19;0.43;;;0.30;;
30593;SDS011;33199;47.590;8.300;2022-09-09T13:19:47;1.10;;;0.43;;
30593;SDS011;33199;47.590;8.300;2022-09-09T13:25:13;0.40;;;0.40;;
30593;SDS011;33199;47.590;8.300;2022-09-09T13:27:50;1.10;;;0.40;;
30593;SDS011;33199;47.590;8.300;2022-09-09T13:30:37;0.20;;;0.20;;
30593;SDS011;33199;47.590;8.300;2022-09-09T13:33:17;0.80;;;0.45;;
30593;SDS011;33199;47.590;8.300;2022-09-09T13:35:48;0.90;;;0.50;;
30593;SDS011;33199;47.590;8.300;2022-09-09T13:38:22;1.85;;;0.63;;
30593;SDS011;33199;47.590;8.300;2022-09-09T13:43:26;1.02;;;0.60;;
30593;SDS011;33199;47.590;8.300;2022-09-09T13:45:54;0.75;;;0.50;;
30593;SDS011;33199;47.590;8.300;2022-09-09T13:48:25;0.30;;;0.30;;
30593;SDS011;33199;47.590;8.300;2022-09-09T13:50:54;0.43;;;0.30;;
30593;SDS011;33199;47.590;8.300;2022-09-09T13:53:25;0.57;;;0.40;;
30593;SDS011;33199;47.590;8.300;2022-09-09T13:55:51;0.30;;;0.30;;
30593;SDS011;33199;47.590;8.300;2022-09-09T13:58:17;0.30;;;0.30;;
30593;SDS011;33199;47.590;8.300;2022-09-09T14:00:44;0.75;;;0.45;;
30593;SDS011;33199;47.590;8.300;2022-09-09T14:03:10;0.60;;;0.40;;
30593;SDS011;33199;47.590;8.300;2022-09-09T14:05:36;0.77;;;0.25;;
30593;SDS011;33199;47.590;8.300;2022-09-09T14:08:03;0.43;;;0.40;;
30593;SDS011;33199;47.590;8.300;2022-09-09T14:10:29;0.30;;;0.30;;
30593;SDS011;33199;47.590;8.300;2022-09-09T14:12:56;0.45;;;0.30;;
30593;SDS011;33199;47.590;8.300;2022-09-09T14:15:21;0.80;;;0.35;;
30593;SDS011;33199;47.590;8.300;2022-09-09T14:17:47;0.30;;;0.30;;
30593;SDS011;33199;47.590;8.300;2022-09-09T14:20:14;0.63;;;0.40;;
30593;SDS011;33199;47.590;8.300;2022-09-09T14:22:40;1.30;;;0.40;;
30593;SDS011;33199;47.590;8.300;2022-09-09T14:25:07;0.65;;;0.35;;
30593;SDS011;33199;47.590;8.300;2022-09-09T14:27:32;0.60;;;0.22;;
30593;SDS011;33199;47.590;8.300;2022-09-09T14:29:58;0.40;;;0.40;;
30593;SDS011;33199;47.590;8.300;2022-09-09T14:32:25;0.80;;;0.32;;
30593;SDS011;33199;47.590;8.300;2022-09-09T14:34:54;0.30;;;0.30;;
30593;SDS011;33199;47.590;8.300;2022-09-09T14:39:45;0.25;;;0.25;;
30593;SDS011;33199;47.590;8.300;2022-09-09T14:42:12;0.30;;;0.30;;
30593;SDS011;33199;47.590;8.300;2022-09-09T14:44:38;1.67;;;0.30;;
30593;SDS011;33199;47.590;8.300;2022-09-09T14:47:04;0.77;;;0.40;;
30593;SDS011;33199;47.590;8.300;2022-09-09T14:49:30;0.17;;;0.17;;
30593;SDS011;33199;47.590;8.300;2022-09-09T14:51:56;0.35;;;0.20;;
30593;SDS011;33199;47.590;8.300;2022-09-09T14:54:21;1.60;;;0.52;;
30593;SDS011;33199;47.590;8.300;2022-09-09T14:56:48;0.45;;;0.40;;
30593;SDS011;33199;47.590;8.300;2022-09-09T14:59:14;0.30;;;0.30;;
30593;SDS011;33199;47.590;8.300;2022-09-09T15:01:39;1.13;;;0.47;;
30593;SDS011;33199;47.590;8.300;2022-09-09T15:04:06;0.82;;;0.47;;
30593;SDS011;33199;47.590;8.300;2022-09-09T15:06:33;0.35;;;0.32;;
30593;SDS011;33199;47.590;8.300;2022-09-09T15:09:01;0.50;;;0.40;;
30593;SDS011;33199;47.590;8.300;2022-09-09T15:11:28;2.42;;;0.40;;
30593;SDS011;33199;47.590;8.300;2022-09-09T15:13:55;0.90;;;0.30;;
30593;SDS011;33199;47.590;8.300;2022-09-09T15:16:25;0.30;;;0.30;;
30593;SDS011;33199;47.590;8.300;2022-09-09T15:18:53;0.80;;;0.40;;
30593;SDS011;33199;47.590;8.300;2022-09-09T15:21:21;0.20;;;0.20;;
30593;SDS011;33199;47.590;8.300;2022-09-09T15:23:48;0.80;;;0.35;;
30593;SDS011;33199;47.590;8.300;2022-09-09T15:26:14;0.70;;;0.30;;
30593;SDS011;33199;47.590;8.300;2022-09-09T15:28:41;0.88;;;0.50;;
30593;SDS011;33199;47.590;8.300;2022-09-09T15:31:15;0.47;;;0.38;;
30593;SDS011;33199;47.590;8.300;2022-09-09T15:33:49;1.75;;;0.40;;
30593;SDS011;33199;47.590;8.300;2022-09-09T15:36:26;0.35;;;0.30;;
30593;SDS011;33199;47.590;8.300;2022-09-09T15:38:54;1.85;;;0.20;;
30593;SDS011;33199;47.590;8.300;2022-09-09T15:41:20;0.40;;;0.30;;
30593;SDS011;33199;47.590;8.300;2022-09-09T15:43:48;0.50;;;0.30;;
30593;SDS011;33199;47.590;8.300;2022-09-09T15:48:41;0.30;;;0.22;;
30593;SDS011;33199;47.590;8.300;2022-09-09T15:51:06;0.40;;;0.30;;
30593;SDS011;33199;47.590;8.300;2022-09-09T15:53:34;0.15;;;0.15;;
30593;SDS011;33199;47.590;8.300;2022-09-09T15:56:00;0.85;;;0.30;;
30593;SDS011;33199;47.590;8.300;2022-09-09T15:58:29;0.35;;;0.30;;
30593;SDS011;33199;47.590;8.300;2022-09-09T16:01:01;0.30;;;0.30;;
30593;SDS011;33199;47.590;8.300;2022-09-09T16:03:29;0.43;;;0.40;;
30593;SDS011;33199;47.590;8.300;2022-09-09T16:05:58;0.20;;;0.20;;
30593;SDS011;33199;47.590;8.300;2022-09-09T16:08:24;0.70;;;0.40;;
30593;SDS011;33199;47.590;8.300;2022-09-09T16:10:56;1.13;;;0.40;;
30593;SDS011;33199;47.590;8.300;2022-09-09T16:13:21;2.72;;;0.40;;
30593;SDS011;33199;47.590;8.300;2022-09-09T16:15:53;0.50;;;0.30;;
30593;SDS011;33199;47.590;8.300;2022-09-09T16:18:19;0.50;;;0.20;;
30593;SDS011;33199;47.590;8.300;2022-09-09T16:20:52;0.40;;;0.30;;
30593;SDS011;33199;47.590;8.300;2022-09-09T16:23:19;0.80;;;0.30;;
30593;SDS011;33199;47.590;8.300;2022-09-09T16:25:52;0.45;;;0.40;;
30593;SDS011;33199;47.590;8.300;2022-09-09T16:28:21;0.80;;;0.38;;
30593;SDS011;33199;47.590;8.300;2022-09-09T16:30:47;0.20;;;0.20;;
30593;SDS011;33199;47.590;8.300;2022-09-09T16:33:13;0.20;;;0.20;;
30593;SDS011;33199;47.590;8.300;2022-09-09T16:38:07;0.45;;;0.30;;
30593;SDS011;33199;47.590;8.300;2022-09-09T16:40:33;0.88;;;0.40;;
30593;SDS011;33199;47.590;8.300;2022-09-09T16:43:00;0.52;;;0.30;;
30593;SDS011;33199;47.590;8.300;2022-09-09T16:45:26;0.80;;;0.20;;
30593;SDS011;33199;47.590;8.300;2022-09-09T16:47:52;1.55;;;0.30;;
30593;SDS011;33199;47.590;8.300;2022-09-09T16:50:18;0.90;;;0.32;;
30593;SDS011;33199;47.590;8.300;2022-09-09T16:52:43;0.30;;;0.30;;
30593;SDS011;33199;47.590;8.300;2022-09-09T16:55:09;1.33;;;0.40;;
30593;SDS011;33199;47.590;8.300;2022-09-09T16:57:34;0.20;;;0.20;;
30593;SDS011;33199;47.590;8.300;2022-09-09T17:00:00;0.40;;;0.30;;
30593;SDS011;33199;47.590;8.300;2022-09-09T17:02:29;0.63;;;0.22;;
30593;SDS011;33199;47.590;8.300;2022-09-09T17:04:56;0.45;;;0.30;;
30593;SDS011;33199;47.590;8.300;2022-09-09T17:07:22;2.40;;;0.30;;
30593;SDS011;33199;47.590;8.300;2022-09-09T17:09:48;1.23;;;0.25;;
30593;SDS011;33199;47.590;8.300;2022-09-09T17:12:14;1.35;;;0.40;;
30593;SDS011;33199;47.590;8.300;2022-09-09T17:14:41;0.63;;;0.30;;
30593;SDS011;33199;47.590;8.300;2022-09-09T17:17:07;0.82;;;0.22;;
30593;SDS011;33199;47.590;8.300;2022-09-09T17:19:33;0.90;;;0.30;;
30593;SDS011;33199;47.590;8.300;2022-09-09T17:21:59;0.38;;;0.30;;
30593;SDS011;33199;47.590;8.300;2022-09-09T17:24:25;0.38;;;0.20;;
30593;SDS011;33199;47.590;8.300;2022-09-09T17:26:53;0.63;;;0.32;;
30593;SDS011;33199;47.590;8.300;2022-09-09T17:29:21;0.30;;;0.30;;
30593;SDS011;33199;47.590;8.300;2022-09-09T17:31:47;0.35;;;0.30;;
30593;SDS011;33199;47.590;8.300;2022-09-09T17:34:12;0.38;;;0.25;;
30593;SDS011;33199;47.590;8.300;2022-09-09T17:36:38;0.82;;;0.28;;